createdAt,value
2018-07-01T00:00:53.672Z,0.00
2018-07-01T00:01:53.600Z,0.00
2018-07-01T00:02:53.562Z,0.00
2018-07-01T00:03:53.505Z,0.00
2018-07-01T00:04:53.497Z,0.00
2018-07-01T00:05:53.513Z,0.00
2018-07-01T00:06:53.407Z,0.00
2018-07-01T00:07:53.413Z,0.00
2018-07-01T00:08:53.351Z,0.00
2018-07-01T00:09:53.304Z,0.00
2018-07-01T00:10:53.268Z,0.00
2018-07-01T00:11:53.233Z,0.00
2018-07-01T00:13:03.020Z,0.00
2018-07-01T00:13:53.137Z,0.00
2018-07-01T00:14:53.102Z,0.00
2018-07-01T00:15:53.243Z,0.00
2018-07-01T00:16:53.059Z,0.00
2018-07-01T00:17:53.378Z,0.00
2018-07-01T00:18:52.968Z,0.00
2018-07-01T00:19:52.903Z,0.00
2018-07-01T00:20:52.897Z,0.00
2018-07-01T00:21:52.856Z,0.00
2018-07-01T00:22:52.819Z,0.00
2018-07-01T00:23:52.783Z,0.00
2018-07-01T00:24:52.761Z,0.00
2018-07-01T00:25:52.739Z,0.00
2018-07-01T00:26:52.665Z,0.00
2018-07-01T00:27:52.646Z,0.00
2018-07-01T00:28:52.601Z,0.00
2018-07-01T00:29:52.561Z,0.00
2018-07-01T00:30:52.514Z,0.00
2018-07-01T00:31:52.557Z,0.00
2018-07-01T00:32:52.424Z,0.00
2018-07-01T00:33:52.381Z,0.00
2018-07-01T00:34:52.359Z,0.00
2018-07-01T00:35:52.367Z,0.00
2018-07-01T00:36:52.311Z,0.00
2018-07-01T00:37:52.312Z,0.00
2018-07-01T00:38:52.233Z,0.00
2018-07-01T00:39:52.164Z,0.00
2018-07-01T00:40:52.149Z,0.00
2018-07-01T00:41:52.110Z,0.00
2018-07-01T00:42:52.086Z,0.00
2018-07-01T00:43:52.022Z,0.00
2018-07-01T00:44:52.011Z,0.00
2018-07-01T00:45:51.956Z,0.00
2018-07-01T00:46:51.906Z,0.00
2018-07-01T00:47:51.907Z,0.00
2018-07-01T00:48:51.863Z,0.00
2018-07-01T00:49:51.853Z,0.00
2018-07-01T00:50:51.780Z,0.00
2018-07-01T00:51:51.766Z,0.00
2018-07-01T00:52:51.709Z,0.00
2018-07-01T00:53:51.658Z,0.00
2018-07-01T00:54:51.614Z,0.00
2018-07-01T00:55:51.596Z,0.00
2018-07-01T00:56:51.541Z,0.00
2018-07-01T00:57:51.513Z,0.00
2018-07-01T00:58:51.473Z,0.00
2018-07-01T00:59:51.441Z,0.00
2018-07-01T01:01:00.871Z,0.00
2018-07-01T01:01:51.679Z,0.00
2018-07-01T01:02:51.308Z,0.00
2018-07-01T01:03:51.306Z,0.00
2018-07-01T01:04:51.248Z,0.00
2018-07-01T01:05:51.195Z,0.00
2018-07-01T01:06:51.171Z,0.00
2018-07-01T01:07:51.201Z,0.00
2018-07-01T01:08:51.122Z,0.00
2018-07-01T01:09:51.737Z,0.00
2018-07-01T01:10:51.019Z,0.00
2018-07-01T01:11:50.996Z,0.00
2018-07-01T01:12:50.973Z,0.00
2018-07-01T01:13:50.896Z,0.00
2018-07-01T01:14:50.905Z,0.00
2018-07-01T01:15:50.814Z,0.00
2018-07-01T01:16:50.802Z,0.00
2018-07-01T01:17:50.749Z,0.00
2018-07-01T01:18:50.716Z,0.00
2018-07-01T01:19:50.741Z,0.00
2018-07-01T01:20:50.672Z,0.00
2018-07-01T01:21:50.625Z,0.00
2018-07-01T01:22:50.577Z,0.00
2018-07-01T01:23:50.538Z,0.00
2018-07-01T01:25:01.456Z,0.00
2018-07-01T01:25:50.735Z,0.00
2018-07-01T01:26:50.501Z,0.00
2018-07-01T01:27:50.713Z,0.00
2018-07-01T01:28:50.371Z,0.00
2018-07-01T01:29:50.364Z,0.00
2018-07-01T01:30:50.287Z,0.00
2018-07-01T01:31:50.247Z,0.00
2018-07-01T01:32:50.204Z,0.00
2018-07-01T01:33:50.181Z,0.00
2018-07-01T01:34:50.117Z,0.00
2018-07-01T01:35:50.113Z,0.00
2018-07-01T01:36:50.061Z,0.00
2018-07-01T01:37:50.055Z,0.00
2018-07-01T01:38:49.962Z,0.00
2018-07-01T01:39:49.948Z,0.00
2018-07-01T01:40:49.912Z,0.00
2018-07-01T01:41:49.860Z,0.00
2018-07-01T01:42:49.836Z,0.00
2018-07-01T01:43:49.785Z,0.00
2018-07-01T01:44:49.731Z,0.00
2018-07-01T01:45:49.733Z,0.00
2018-07-01T01:46:49.673Z,0.00
2018-07-01T01:48:01.312Z,0.00
2018-07-01T01:48:49.617Z,0.00
2018-07-01T01:49:49.562Z,0.00
2018-07-01T01:50:49.500Z,0.00
2018-07-01T01:51:49.999Z,0.00
2018-07-01T01:52:49.464Z,0.00
2018-07-01T01:53:49.401Z,0.00
2018-07-01T01:54:49.358Z,0.00
2018-07-01T01:55:49.324Z,0.00
2018-07-01T01:56:49.319Z,0.00
2018-07-01T01:57:49.247Z,0.00
2018-07-01T01:58:49.224Z,0.00
2018-07-01T01:59:49.176Z,0.00
2018-07-01T02:00:49.147Z,0.00
2018-07-01T02:01:49.168Z,0.00
2018-07-01T02:02:49.075Z,0.00
2018-07-01T02:03:49.036Z,0.00
2018-07-01T02:04:48.974Z,0.00
2018-07-01T02:05:48.940Z,0.00
2018-07-01T02:06:48.904Z,0.00
2018-07-01T02:07:48.884Z,0.00
2018-07-01T02:08:48.853Z,0.00
2018-07-01T02:09:48.806Z,0.00
2018-07-01T02:10:48.779Z,0.00
2018-07-01T02:11:48.718Z,0.00
2018-07-01T02:12:48.732Z,0.00
2018-07-01T02:13:48.666Z,0.00
2018-07-01T02:14:48.592Z,0.00
2018-07-01T02:15:48.612Z,0.00
2018-07-01T02:16:48.534Z,0.00
2018-07-01T02:17:48.536Z,0.00
2018-07-01T02:18:48.457Z,0.00
2018-07-01T02:19:48.422Z,0.00
2018-07-01T02:20:48.422Z,0.00
2018-07-01T02:21:48.339Z,0.00
2018-07-01T02:22:48.309Z,0.00
2018-07-01T02:23:48.291Z,0.00
2018-07-01T02:24:48.261Z,0.00
2018-07-01T02:25:48.184Z,0.00
2018-07-01T02:26:48.163Z,0.00
2018-07-01T02:27:48.132Z,0.00
2018-07-01T02:28:48.095Z,0.00
2018-07-01T02:29:48.071Z,0.00
2018-07-01T02:30:48.000Z,0.00
2018-07-01T02:31:47.973Z,0.00
2018-07-01T02:32:47.939Z,0.00
2018-07-01T02:33:47.902Z,0.00
2018-07-01T02:34:47.897Z,0.00
2018-07-01T02:35:47.853Z,0.00
2018-07-01T02:36:47.774Z,0.00
2018-07-01T02:37:47.723Z,0.00
2018-07-01T02:38:47.729Z,0.00
2018-07-01T02:39:47.692Z,0.00
2018-07-01T02:40:47.615Z,0.00
2018-07-01T02:41:47.631Z,0.00
2018-07-01T02:42:47.582Z,0.00
2018-07-01T02:43:47.554Z,0.00
2018-07-01T02:44:47.491Z,0.00
2018-07-01T02:45:47.422Z,0.00
2018-07-01T02:46:47.397Z,0.00
2018-07-01T02:47:47.375Z,0.00
2018-07-01T02:48:47.351Z,0.00
2018-07-01T02:49:47.286Z,0.00
2018-07-01T02:50:47.233Z,0.00
2018-07-01T02:51:47.215Z,0.00
2018-07-01T02:52:47.176Z,0.00
2018-07-01T02:53:47.191Z,0.00
2018-07-01T02:54:47.116Z,0.00
2018-07-01T02:55:47.070Z,0.00
2018-07-01T02:56:47.011Z,0.00
2018-07-01T02:57:46.973Z,0.00
2018-07-01T02:58:46.951Z,0.00
2018-07-01T02:59:46.925Z,0.00
2018-07-01T03:00:46.888Z,0.00
2018-07-01T03:01:46.836Z,0.00
2018-07-01T03:02:46.802Z,0.00
2018-07-01T03:03:46.771Z,0.00
2018-07-01T03:04:46.750Z,0.00
2018-07-01T03:05:46.697Z,5.63
2018-07-01T03:06:46.631Z,5.63
2018-07-01T03:07:46.611Z,5.63
2018-07-01T03:08:46.583Z,5.63
2018-07-01T03:09:46.518Z,5.63
2018-07-01T03:10:46.528Z,5.63
2018-07-01T03:11:46.458Z,5.63
2018-07-01T03:12:46.417Z,5.63
2018-07-01T03:13:46.387Z,5.63
2018-07-01T03:14:46.322Z,11.25
2018-07-01T03:15:46.325Z,11.25
2018-07-01T03:16:46.249Z,11.25
2018-07-01T03:17:46.235Z,11.25
2018-07-01T03:18:46.184Z,11.25
2018-07-01T03:19:46.125Z,16.88
2018-07-01T03:20:46.150Z,16.88
2018-07-01T03:21:46.058Z,16.88
2018-07-01T03:22:46.041Z,16.88
2018-07-01T03:23:46.050Z,16.88
2018-07-01T03:24:45.981Z,22.50
2018-07-01T03:25:45.910Z,22.50
2018-07-01T03:26:45.898Z,22.50
2018-07-01T03:27:45.821Z,22.50
2018-07-01T03:28:45.826Z,28.13
2018-07-01T03:29:45.751Z,28.13
2018-07-01T03:30:45.718Z,28.13
2018-07-01T03:31:45.740Z,28.13
2018-07-01T03:32:45.635Z,33.75
2018-07-01T03:33:45.586Z,33.75
2018-07-01T03:34:45.566Z,33.75
2018-07-01T03:35:45.524Z,39.38
2018-07-01T03:36:45.508Z,39.38
2018-07-01T03:37:45.454Z,39.38
2018-07-01T03:38:45.421Z,45.00
2018-07-01T03:39:45.387Z,45.00
2018-07-01T03:40:45.331Z,45.00
2018-07-01T03:41:45.317Z,45.00
2018-07-01T03:42:45.302Z,50.63
2018-07-01T03:43:45.207Z,50.63
2018-07-01T03:44:45.165Z,50.63
2018-07-01T03:45:45.143Z,56.25
2018-07-01T03:46:45.089Z,56.25
2018-07-01T03:47:45.132Z,56.25
2018-07-01T03:48:45.018Z,61.88
2018-07-01T03:49:44.973Z,61.88
2018-07-01T03:50:44.961Z,61.88
2018-07-01T03:51:44.900Z,67.50
2018-07-01T03:52:44.941Z,67.50
2018-07-01T03:53:57.353Z,67.50
2018-07-01T03:54:44.778Z,73.13
2018-07-01T03:55:44.782Z,73.13
2018-07-01T03:56:44.723Z,73.13
2018-07-01T03:57:44.712Z,78.75
2018-07-01T03:58:44.622Z,78.75
2018-07-01T03:59:44.596Z,78.75
2018-07-01T04:00:44.588Z,84.38
2018-07-01T04:01:44.527Z,84.38
2018-07-01T04:02:44.471Z,84.38
2018-07-01T04:03:44.458Z,90.00
2018-07-01T04:04:44.433Z,90.00
2018-07-01T04:05:44.375Z,90.00
2018-07-01T04:06:44.311Z,95.63
2018-07-01T04:07:44.297Z,95.63
2018-07-01T04:08:44.278Z,95.63
2018-07-01T04:09:44.247Z,95.63
2018-07-01T04:10:44.202Z,101.25
2018-07-01T04:11:44.150Z,101.25
2018-07-01T04:12:44.102Z,101.25
2018-07-01T04:13:44.066Z,106.88
2018-07-01T04:14:44.027Z,106.88
2018-07-01T04:15:44.017Z,106.88
2018-07-01T04:16:43.920Z,112.50
2018-07-01T04:17:43.906Z,112.50
2018-07-01T04:18:43.875Z,112.50
2018-07-01T04:19:43.841Z,118.13
2018-07-01T04:20:43.800Z,118.13
2018-07-01T04:21:43.766Z,118.13
2018-07-01T04:22:43.702Z,123.75
2018-07-01T04:23:43.722Z,123.75
2018-07-01T04:24:43.656Z,123.75
2018-07-01T04:25:43.573Z,123.75
2018-07-01T04:26:43.619Z,129.38
2018-07-01T04:27:43.507Z,129.38
2018-07-01T04:28:43.468Z,129.38
2018-07-01T04:29:43.466Z,135.00
2018-07-01T04:30:43.400Z,135.00
2018-07-01T04:31:43.350Z,135.00
2018-07-01T04:32:43.321Z,151.88
2018-07-01T04:33:43.327Z,213.75
2018-07-01T04:34:43.281Z,270.00
2018-07-01T04:35:43.191Z,315.00
2018-07-01T04:36:43.160Z,337.50
2018-07-01T04:37:43.125Z,343.13
2018-07-01T04:38:43.085Z,348.75
2018-07-01T04:39:43.059Z,354.38
2018-07-01T04:40:43.038Z,360.00
2018-07-01T04:41:42.980Z,365.63
2018-07-01T04:42:42.947Z,371.25
2018-07-01T04:43:42.896Z,376.88
2018-07-01T04:44:42.860Z,382.50
2018-07-01T04:45:42.856Z,388.13
2018-07-01T04:46:42.803Z,393.75
2018-07-01T04:47:42.784Z,399.38
2018-07-01T04:48:42.743Z,399.38
2018-07-01T04:49:42.682Z,405.00
2018-07-01T04:50:42.686Z,421.88
2018-07-01T04:51:42.595Z,444.38
2018-07-01T04:52:42.575Z,472.50
2018-07-01T04:53:42.533Z,495.00
2018-07-01T04:54:42.533Z,489.38
2018-07-01T04:55:42.456Z,478.13
2018-07-01T04:56:42.437Z,472.50
2018-07-01T04:57:42.379Z,461.25
2018-07-01T04:58:42.373Z,466.88
2018-07-01T04:59:42.336Z,472.50
2018-07-01T05:00:42.321Z,472.50
2018-07-01T05:01:42.289Z,478.13
2018-07-01T05:02:42.216Z,478.13
2018-07-01T05:03:42.196Z,483.75
2018-07-01T05:04:42.178Z,495.00
2018-07-01T05:05:42.136Z,506.25
2018-07-01T05:06:42.104Z,562.50
2018-07-01T05:07:42.050Z,613.13
2018-07-01T05:08:42.027Z,618.75
2018-07-01T05:09:42.002Z,590.63
2018-07-01T05:10:41.938Z,556.88
2018-07-01T05:11:41.953Z,517.50
2018-07-01T05:12:41.885Z,500.63
2018-07-01T05:13:41.870Z,495.00
2018-07-01T05:14:41.821Z,500.63
2018-07-01T05:15:41.795Z,500.63
2018-07-01T05:16:41.764Z,511.88
2018-07-01T05:17:41.736Z,523.13
2018-07-01T05:18:41.726Z,528.75
2018-07-01T05:19:41.639Z,528.75
2018-07-01T05:20:52.282Z,534.38
2018-07-01T05:21:41.589Z,540.00
2018-07-01T05:22:41.778Z,545.63
2018-07-01T05:23:42.518Z,551.25
2018-07-01T05:24:41.624Z,562.50
2018-07-01T05:25:41.451Z,573.75
2018-07-01T05:26:41.426Z,585.00
2018-07-01T05:27:41.513Z,590.63
2018-07-01T05:28:41.341Z,590.63
2018-07-01T05:29:41.326Z,613.13
2018-07-01T05:30:41.288Z,624.38
2018-07-01T05:31:41.277Z,658.13
2018-07-01T05:32:41.216Z,742.50
2018-07-01T05:33:41.205Z,888.75
2018-07-01T05:34:41.179Z,1006.88
2018-07-01T05:35:41.161Z,1012.50
2018-07-01T05:36:41.090Z,933.75
2018-07-01T05:37:41.065Z,883.13
2018-07-01T05:38:41.047Z,888.75
2018-07-01T05:39:40.990Z,900.00
2018-07-01T05:40:40.980Z,883.13
2018-07-01T05:41:40.925Z,905.63
2018-07-01T05:42:40.915Z,950.63
2018-07-01T05:43:40.888Z,1012.50
2018-07-01T05:44:40.839Z,1035.00
2018-07-01T05:45:40.804Z,1063.13
2018-07-01T05:46:40.797Z,1108.13
2018-07-01T05:47:40.717Z,1074.38
2018-07-01T05:48:40.752Z,967.50
2018-07-01T05:49:40.677Z,990.00
2018-07-01T05:50:40.630Z,1136.25
2018-07-01T05:51:40.612Z,1186.88
2018-07-01T05:52:40.576Z,1119.38
2018-07-01T05:53:40.532Z,984.38
2018-07-01T05:54:40.522Z,1001.25
2018-07-01T05:55:40.470Z,1102.50
2018-07-01T05:56:40.440Z,1046.25
2018-07-01T05:57:40.434Z,950.63
2018-07-01T05:58:40.379Z,978.75
2018-07-01T05:59:40.380Z,928.13
2018-07-01T06:00:40.308Z,821.25
2018-07-01T06:01:40.273Z,770.63
2018-07-01T06:02:40.244Z,776.25
2018-07-01T06:03:40.231Z,765.00
2018-07-01T06:04:40.218Z,742.50
2018-07-01T06:05:40.182Z,731.25
2018-07-01T06:06:40.117Z,725.63
2018-07-01T06:07:40.115Z,742.50
2018-07-01T06:08:40.136Z,731.25
2018-07-01T06:09:40.032Z,720.00
2018-07-01T06:10:40.020Z,714.38
2018-07-01T06:11:39.990Z,714.38
2018-07-01T06:12:39.929Z,714.38
2018-07-01T06:13:39.892Z,714.38
2018-07-01T06:14:39.892Z,708.75
2018-07-01T06:15:39.855Z,703.13
2018-07-01T06:16:39.850Z,703.13
2018-07-01T06:17:39.793Z,703.13
2018-07-01T06:18:39.730Z,703.13
2018-07-01T06:19:39.685Z,714.38
2018-07-01T06:20:39.712Z,714.38
2018-07-01T06:21:39.648Z,714.38
2018-07-01T06:22:39.596Z,714.38
2018-07-01T06:23:39.585Z,708.75
2018-07-01T06:24:39.555Z,714.38
2018-07-01T06:25:39.510Z,720.00
2018-07-01T06:26:39.509Z,720.00
2018-07-01T06:27:39.459Z,725.63
2018-07-01T06:28:39.452Z,731.25
2018-07-01T06:29:39.395Z,736.88
2018-07-01T06:30:39.371Z,742.50
2018-07-01T06:31:39.343Z,748.13
2018-07-01T06:32:39.278Z,742.50
2018-07-01T06:33:39.242Z,748.13
2018-07-01T06:34:39.233Z,753.75
2018-07-01T06:35:39.196Z,759.38
2018-07-01T06:36:39.209Z,753.75
2018-07-01T06:37:39.129Z,753.75
2018-07-01T06:38:39.101Z,753.75
2018-07-01T06:39:39.140Z,753.75
2018-07-01T06:40:39.049Z,753.75
2018-07-01T06:41:39.037Z,753.75
2018-07-01T06:42:38.983Z,759.38
2018-07-01T06:43:38.970Z,748.13
2018-07-01T06:44:38.921Z,759.38
2018-07-01T06:45:38.897Z,753.75
2018-07-01T06:46:38.859Z,753.75
2018-07-01T06:47:38.830Z,759.38
2018-07-01T06:48:38.777Z,765.00
2018-07-01T06:49:38.737Z,759.38
2018-07-01T06:50:38.720Z,765.00
2018-07-01T06:51:38.669Z,770.63
2018-07-01T06:52:38.665Z,770.63
2018-07-01T06:53:38.632Z,776.25
2018-07-01T06:54:38.582Z,776.25
2018-07-01T06:55:38.555Z,787.50
2018-07-01T06:56:38.535Z,793.13
2018-07-01T06:57:38.524Z,798.75
2018-07-01T06:58:38.478Z,793.13
2018-07-01T06:59:38.475Z,798.75
2018-07-01T07:00:38.410Z,810.00
2018-07-01T07:01:38.386Z,810.00
2018-07-01T07:02:38.320Z,815.63
2018-07-01T07:03:38.321Z,821.25
2018-07-01T07:04:38.259Z,826.88
2018-07-01T07:05:38.252Z,832.50
2018-07-01T07:06:38.260Z,849.38
2018-07-01T07:07:38.173Z,843.75
2018-07-01T07:08:38.151Z,860.63
2018-07-01T07:09:38.098Z,849.38
2018-07-01T07:10:38.090Z,860.63
2018-07-01T07:11:38.056Z,866.25
2018-07-01T07:12:38.043Z,883.13
2018-07-01T07:13:38.053Z,883.13
2018-07-01T07:14:37.980Z,894.38
2018-07-01T07:15:37.928Z,911.25
2018-07-01T07:16:37.899Z,916.88
2018-07-01T07:17:37.851Z,922.50
2018-07-01T07:18:37.846Z,939.38
2018-07-01T07:19:37.831Z,961.88
2018-07-01T07:20:37.786Z,961.88
2018-07-01T07:21:37.769Z,967.50
2018-07-01T07:22:37.712Z,961.88
2018-07-01T07:23:37.695Z,978.75
2018-07-01T07:24:37.737Z,1001.25
2018-07-01T07:25:37.607Z,1006.88
2018-07-01T07:26:37.577Z,1012.50
2018-07-01T07:27:37.558Z,1023.75
2018-07-01T07:28:37.537Z,1029.38
2018-07-01T07:29:37.500Z,1046.25
2018-07-01T07:30:37.482Z,1046.25
2018-07-01T07:31:37.424Z,1051.88
2018-07-01T07:32:37.393Z,1057.50
2018-07-01T07:33:37.370Z,1080.00
2018-07-01T07:34:37.355Z,1091.25
2018-07-01T07:35:37.310Z,1108.13
2018-07-01T07:36:37.264Z,1113.75
2018-07-01T07:37:37.232Z,1119.38
2018-07-01T07:38:37.210Z,1130.63
2018-07-01T07:39:37.169Z,1136.25
2018-07-01T07:40:37.216Z,1147.50
2018-07-01T07:41:37.115Z,1147.50
2018-07-01T07:42:37.076Z,1153.13
2018-07-01T07:43:37.086Z,1158.75
2018-07-01T07:44:37.041Z,1175.63
2018-07-01T07:45:37.008Z,1181.25
2018-07-01T07:46:36.959Z,1181.25
2018-07-01T07:47:36.925Z,1186.88
2018-07-01T07:48:36.911Z,1198.13
2018-07-01T07:49:36.854Z,1203.75
2018-07-01T07:50:36.871Z,1209.38
2018-07-01T07:51:36.823Z,1220.63
2018-07-01T07:52:36.779Z,1220.63
2018-07-01T07:53:36.738Z,1220.63
2018-07-01T07:54:36.732Z,1226.25
2018-07-01T07:55:36.681Z,1231.88
2018-07-01T07:56:36.675Z,1248.75
2018-07-01T07:57:36.621Z,1248.75
2018-07-01T07:58:36.597Z,1254.38
2018-07-01T07:59:36.566Z,1282.50
2018-07-01T08:00:36.520Z,1321.88
2018-07-01T08:01:36.518Z,1316.25
2018-07-01T08:02:36.464Z,1316.25
2018-07-01T08:03:36.435Z,1316.25
2018-07-01T08:04:36.413Z,1310.63
2018-07-01T08:05:36.372Z,1316.25
2018-07-01T08:06:36.396Z,1350.00
2018-07-01T08:07:36.314Z,1355.63
2018-07-01T08:08:36.279Z,1366.88
2018-07-01T08:09:36.247Z,1395.00
2018-07-01T08:10:36.224Z,1434.38
2018-07-01T08:11:36.205Z,1479.38
2018-07-01T08:12:36.191Z,1524.38
2018-07-01T08:13:36.119Z,1546.88
2018-07-01T08:14:36.122Z,1631.25
2018-07-01T08:15:36.082Z,1788.75
2018-07-01T08:16:36.032Z,1929.38
2018-07-01T08:17:36.075Z,2086.88
2018-07-01T08:18:35.985Z,2356.88
2018-07-01T08:19:35.958Z,2818.13
2018-07-01T08:20:35.900Z,3296.25
2018-07-01T08:21:35.899Z,4050.00
2018-07-01T08:22:35.881Z,4494.38
2018-07-01T08:23:35.817Z,4809.38
2018-07-01T08:24:35.809Z,5118.75
2018-07-01T08:25:35.753Z,5163.75
2018-07-01T08:26:35.742Z,5023.13
2018-07-01T08:27:35.682Z,4876.88
2018-07-01T08:28:35.688Z,4781.25
2018-07-01T08:29:45.992Z,4685.63
2018-07-01T08:30:35.610Z,4995.00
2018-07-01T08:31:35.563Z,4938.75
2018-07-01T08:32:36.281Z,4528.13
2018-07-01T08:33:35.544Z,4668.75
2018-07-01T08:34:35.514Z,4871.25
2018-07-01T08:35:35.463Z,4966.88
2018-07-01T08:36:35.424Z,5242.50
2018-07-01T08:37:35.437Z,5349.38
2018-07-01T08:38:35.377Z,5304.38
2018-07-01T08:39:35.333Z,5304.38
2018-07-01T08:40:35.308Z,5366.25
2018-07-01T08:41:35.260Z,5203.13
2018-07-01T08:42:35.239Z,5006.25
2018-07-01T08:43:35.248Z,5062.50
2018-07-01T08:44:35.202Z,5276.25
2018-07-01T08:45:35.176Z,5079.38
2018-07-01T08:46:35.114Z,4876.88
2018-07-01T08:47:35.089Z,4640.63
2018-07-01T08:48:35.070Z,4072.50
2018-07-01T08:49:35.060Z,905.63
2018-07-01T08:50:34.991Z,4336.88
2018-07-01T08:51:34.981Z,4983.75
2018-07-01T08:52:45.344Z,4848.75
2018-07-01T08:53:34.930Z,5034.38
2018-07-01T08:54:34.888Z,5186.25
2018-07-01T08:55:34.841Z,4848.75
2018-07-01T08:56:35.604Z,4792.50
2018-07-01T08:57:35.112Z,4837.50
2018-07-01T08:58:34.747Z,4702.50
2018-07-01T08:59:34.749Z,4927.50
2018-07-01T09:00:34.686Z,5186.25
2018-07-01T09:01:34.652Z,5130.00
2018-07-01T09:02:34.631Z,4950.00
2018-07-01T09:03:34.635Z,5101.88
2018-07-01T09:04:34.640Z,5006.25
2018-07-01T09:05:34.545Z,4989.38
2018-07-01T09:06:34.528Z,4831.88
2018-07-01T09:07:34.482Z,4955.63
2018-07-01T09:08:34.513Z,5090.63
2018-07-01T09:09:34.417Z,4865.63
2018-07-01T09:10:34.441Z,4826.25
2018-07-01T09:11:34.368Z,4955.63
2018-07-01T09:12:34.348Z,4854.38
2018-07-01T09:13:34.322Z,4905.00
2018-07-01T09:14:34.283Z,4933.13
2018-07-01T09:15:34.291Z,4815.00
2018-07-01T09:16:34.277Z,4747.50
2018-07-01T09:17:34.200Z,4927.50
2018-07-01T09:18:34.170Z,4933.13
2018-07-01T09:19:34.128Z,4798.13
2018-07-01T09:20:34.128Z,4696.88
2018-07-01T09:21:34.068Z,4567.50
2018-07-01T09:22:34.099Z,4488.75
2018-07-01T09:23:34.050Z,4528.13
2018-07-01T09:24:34.007Z,4511.25
2018-07-01T09:25:33.988Z,4505.63
2018-07-01T09:26:33.945Z,4421.25
2018-07-01T09:27:33.905Z,4106.25
2018-07-01T09:28:33.936Z,4078.13
2018-07-01T09:29:33.842Z,4218.75
2018-07-01T09:30:33.849Z,4342.50
2018-07-01T09:31:33.777Z,4432.50
2018-07-01T09:32:33.778Z,4494.38
2018-07-01T09:33:33.712Z,4466.25
2018-07-01T09:34:33.771Z,4629.38
2018-07-01T09:35:33.668Z,4803.75
2018-07-01T09:36:33.665Z,4674.38
2018-07-01T09:37:33.607Z,4803.75
2018-07-01T09:38:33.574Z,4916.25
2018-07-01T09:39:44.729Z,5023.13
2018-07-01T09:40:33.538Z,4966.88
2018-07-01T09:41:33.524Z,4831.88
2018-07-01T09:42:33.624Z,4865.63
2018-07-01T09:43:33.953Z,4882.50
2018-07-01T09:44:33.413Z,4758.75
2018-07-01T09:45:33.381Z,4741.88
2018-07-01T09:46:33.412Z,4702.50
2018-07-01T09:47:33.363Z,4567.50
2018-07-01T09:48:33.306Z,4466.25
2018-07-01T09:49:33.289Z,4387.50
2018-07-01T09:50:33.307Z,4353.75
2018-07-01T09:51:33.214Z,4578.75
2018-07-01T09:52:33.227Z,4522.50
2018-07-01T09:53:33.194Z,4651.88
2018-07-01T09:54:33.183Z,4713.75
2018-07-01T09:55:33.122Z,4848.75
2018-07-01T09:56:33.091Z,4736.25
2018-07-01T09:57:33.083Z,4606.88
2018-07-01T09:58:33.142Z,4584.38
2018-07-01T09:59:33.071Z,4404.38
2018-07-01T10:00:32.958Z,4404.38
2018-07-01T10:01:32.941Z,4432.50
2018-07-01T10:02:32.907Z,4545.00
2018-07-01T10:03:32.915Z,4747.50
2018-07-01T10:04:32.866Z,4623.75
2018-07-01T10:05:32.864Z,4708.13
2018-07-01T10:06:32.836Z,4657.50
2018-07-01T10:07:32.787Z,4336.88
2018-07-01T10:08:32.774Z,4398.75
2018-07-01T10:09:32.704Z,4606.88
2018-07-01T10:10:32.687Z,4803.75
2018-07-01T10:11:32.662Z,4905.00
2018-07-01T10:12:32.645Z,4730.63
2018-07-01T10:13:32.621Z,4556.25
2018-07-01T10:14:32.600Z,4556.25
2018-07-01T10:15:32.561Z,4651.88
2018-07-01T10:16:32.545Z,4708.13
2018-07-01T10:17:32.513Z,4680.00
2018-07-01T10:18:32.489Z,4730.63
2018-07-01T10:19:32.444Z,4702.50
2018-07-01T10:20:32.428Z,3785.63
2018-07-01T10:21:32.413Z,4663.13
2018-07-01T10:22:32.355Z,4696.88
2018-07-01T10:23:32.321Z,4404.38
2018-07-01T10:24:32.326Z,4432.50
2018-07-01T10:25:32.276Z,4359.38
2018-07-01T10:26:44.621Z,4449.38
2018-07-01T10:27:32.211Z,4477.50
2018-07-01T10:28:32.195Z,4640.63
2018-07-01T10:29:32.262Z,4522.50
2018-07-01T10:30:33.067Z,4533.75
2018-07-01T10:31:32.192Z,4550.63
2018-07-01T10:32:32.185Z,4522.50
2018-07-01T10:33:32.045Z,4505.63
2018-07-01T10:34:32.124Z,4516.88
2018-07-01T10:35:32.024Z,4680.00
2018-07-01T10:36:31.965Z,4691.25
2018-07-01T10:37:31.967Z,4556.25
2018-07-01T10:38:31.904Z,2733.75
2018-07-01T10:39:31.878Z,4629.38
2018-07-01T10:40:31.877Z,4466.25
2018-07-01T10:41:31.850Z,4477.50
2018-07-01T10:42:31.805Z,4685.63
2018-07-01T10:43:31.790Z,4663.13
2018-07-01T10:44:31.746Z,4500.00
2018-07-01T10:45:31.736Z,4381.88
2018-07-01T10:46:31.717Z,4438.13
2018-07-01T10:47:31.725Z,4550.63
2018-07-01T10:48:31.655Z,4505.63
2018-07-01T10:49:31.617Z,4089.38
2018-07-01T10:50:31.621Z,3515.63
2018-07-01T10:51:31.552Z,3228.75
2018-07-01T10:52:31.603Z,3622.50
2018-07-01T10:53:31.499Z,4320.00
2018-07-01T10:54:31.479Z,4685.63
2018-07-01T10:55:31.528Z,4680.00
2018-07-01T10:56:31.518Z,4623.75
2018-07-01T10:57:31.571Z,4561.88
2018-07-01T10:58:31.365Z,4393.13
2018-07-01T10:59:31.372Z,4404.38
2018-07-01T11:00:31.342Z,4483.13
2018-07-01T11:01:31.311Z,4550.63
2018-07-01T11:02:31.309Z,2823.75
2018-07-01T11:03:31.219Z,4753.13
2018-07-01T11:04:31.197Z,4775.63
2018-07-01T11:05:31.193Z,4314.38
2018-07-01T11:06:31.188Z,4145.63
2018-07-01T11:07:31.133Z,4134.38
2018-07-01T11:08:31.110Z,4230.00
2018-07-01T11:09:31.118Z,4359.38
2018-07-01T11:10:31.075Z,4410.00
2018-07-01T11:11:31.057Z,4410.00
2018-07-01T11:12:31.014Z,4297.50
2018-07-01T11:13:30.952Z,4336.88
2018-07-01T11:14:30.959Z,4483.13
2018-07-01T11:15:30.900Z,4500.00
2018-07-01T11:16:30.882Z,4528.13
2018-07-01T11:17:30.868Z,4455.00
2018-07-01T11:18:30.833Z,4162.50
2018-07-01T11:19:30.843Z,4578.75
2018-07-01T11:20:30.806Z,4629.38
2018-07-01T11:21:30.789Z,4263.75
2018-07-01T11:22:30.759Z,4663.13
2018-07-01T11:23:30.700Z,4140.00
2018-07-01T11:24:30.648Z,5045.63
2018-07-01T11:25:30.624Z,4095.00
2018-07-01T11:26:30.616Z,3819.38
2018-07-01T11:27:30.754Z,5146.88
2018-07-01T11:28:30.595Z,4156.88
2018-07-01T11:29:30.519Z,4719.38
2018-07-01T11:30:30.521Z,4876.88
2018-07-01T11:31:30.469Z,4573.13
2018-07-01T11:32:30.512Z,4539.38
2018-07-01T11:33:30.410Z,4421.25
2018-07-01T11:34:30.370Z,4258.13
2018-07-01T11:35:30.345Z,4381.88
2018-07-01T11:36:30.334Z,4320.00
2018-07-01T11:37:30.303Z,4365.00
2018-07-01T11:38:30.288Z,4567.50
2018-07-01T11:39:30.242Z,4528.13
2018-07-01T11:40:30.235Z,3166.88
2018-07-01T11:41:30.202Z,2553.75
2018-07-01T11:42:30.192Z,4516.88
2018-07-01T11:43:30.142Z,4432.50
2018-07-01T11:44:30.129Z,3088.13
2018-07-01T11:45:30.060Z,4213.13
2018-07-01T11:46:30.053Z,4331.25
2018-07-01T11:47:30.023Z,4460.63
2018-07-01T11:48:30.013Z,4539.38
2018-07-01T11:49:29.965Z,4483.13
2018-07-01T11:50:29.941Z,4516.88
2018-07-01T11:51:29.922Z,4365.00
2018-07-01T11:52:29.998Z,3684.38
2018-07-01T11:53:29.837Z,4314.38
2018-07-01T11:54:29.837Z,4398.75
2018-07-01T11:55:29.795Z,4466.25
2018-07-01T11:56:29.751Z,4432.50
2018-07-01T11:57:29.757Z,4207.50
2018-07-01T11:58:29.723Z,4061.25
2018-07-01T11:59:29.711Z,1029.38
2018-07-01T12:00:29.670Z,1299.38
2018-07-01T12:01:29.619Z,1749.38
2018-07-01T12:02:29.608Z,2750.63
2018-07-01T12:03:29.574Z,3920.63
2018-07-01T12:04:29.558Z,928.13
2018-07-01T12:05:29.556Z,4393.13
2018-07-01T12:06:29.469Z,1732.50
2018-07-01T12:07:29.475Z,4320.00
2018-07-01T12:08:29.438Z,4224.38
2018-07-01T12:09:29.389Z,4213.13
2018-07-01T12:10:29.427Z,798.75
2018-07-01T12:11:29.334Z,3701.25
2018-07-01T12:12:29.321Z,2531.25
2018-07-01T12:13:29.311Z,4196.25
2018-07-01T12:14:29.257Z,4336.88
2018-07-01T12:15:29.237Z,748.13
2018-07-01T12:16:29.186Z,3948.75
2018-07-01T12:17:29.155Z,4387.50
2018-07-01T12:18:29.157Z,3735.00
2018-07-01T12:19:29.120Z,1479.38
2018-07-01T12:20:29.111Z,995.63
2018-07-01T12:21:29.063Z,4190.63
2018-07-01T12:22:29.031Z,748.13
2018-07-01T12:23:29.002Z,2486.25
2018-07-01T12:24:28.971Z,1524.38
2018-07-01T12:25:28.975Z,916.88
2018-07-01T12:26:28.913Z,2452.50
2018-07-01T12:27:28.920Z,759.38
2018-07-01T12:28:28.850Z,669.38
2018-07-01T12:29:28.820Z,590.63
2018-07-01T12:30:28.794Z,568.13
2018-07-01T12:31:28.791Z,562.50
2018-07-01T12:32:28.740Z,810.00